OIFK  Kashan  Airport

Iran

Add Bookmark
ICAO OIFK
Type Airport
Status Operational
Latitude
33° 53' 43" N
33.895302
Longitude
51° 34' 37" E
51.577000
Local (DST + 5) UTC (GMT + 4)
Aug 29, 2015 01:50 Aug 29, 2015 09:20
Sunrise-Sunset Local UTC
Begin Civil Twilight 06:08 01:38
Sunrise 06:33 02:03
Sunset 07:35 15:05
End Civil Twilight 08:00 15:30
VFR
VFR
MVFR
MVFR
IFR
IFR
LIFR
LIFR
Unknown
Unavailable

Current Weather

METAR Observed VFR
OIFK 282300Z 00000KT CAVOK 23/08 Q1016 Fri, Aug 28, 2015 @ 23:00 UTC
(10 Hours, 20 Minutes ago)
Visual Flight Rules
Wind Visibility Conditions
Calm 10 km or more
  • No significant weather
Temperatures Readings Precipitation
Current Temp
23°C
73°F
Dewpoint
8°C
46°F
Humidity 38%
Altimeter 30" Hg
Sea Level Pressure 1,016 mb
Field Elevation
982 m
3,222 ft
None Recorded
-
-

CheckWX.com is intended as a tool to help pilots better visualize weather data. It is not intended as a substitute for an official weather briefing obtained from a Flight Service Station. CheckWX.com does not meet the FAA requirements for an official pre-flight weather briefing. Therefore, it's important that pilots still call and obtain an official FSS pre-flight weather briefing.

© 2007-2015 CheckWX.com
09:20:26 UTC